createdAt,value
2017-01-02T00:00:00.633Z,20.76
2017-01-02T00:00:30.679Z,20.72
2017-01-02T00:01:00.713Z,20.75
2017-01-02T00:01:30.748Z,20.79
2017-01-02T00:02:00.790Z,20.71
2017-01-02T00:02:30.824Z,20.73
2017-01-02T00:03:00.865Z,20.72
2017-01-02T00:03:30.907Z,20.73
2017-01-02T00:04:00.945Z,20.79
2017-01-02T00:04:30.992Z,20.72
2017-01-02T00:05:01.019Z,20.76
2017-01-02T00:05:31.060Z,20.71
2017-01-02T00:06:01.093Z,20.71
2017-01-02T00:06:31.132Z,20.72
2017-01-02T00:07:01.178Z,20.75
2017-01-02T00:07:31.248Z,20.73
2017-01-02T00:08:01.254Z,20.72
2017-01-02T00:08:31.283Z,20.73
2017-01-02T00:09:01.327Z,20.71
2017-01-02T00:09:31.366Z,20.73
2017-01-02T00:10:01.404Z,20.73
2017-01-02T00:10:31.445Z,20.73
2017-01-02T00:11:01.782Z,20.73
2017-01-02T00:11:31.518Z,20.71
2017-01-02T00:12:01.560Z,20.69
2017-01-02T00:12:31.596Z,20.75
2017-01-02T00:13:01.629Z,20.75
2017-01-02T00:13:31.676Z,20.71
2017-01-02T00:14:01.713Z,20.71
2017-01-02T00:14:31.748Z,20.66
2017-01-02T00:15:01.789Z,20.68
2017-01-02T00:15:31.824Z,20.73
2017-01-02T00:16:01.866Z,20.71
2017-01-02T00:16:31.902Z,20.71
2017-01-02T00:17:02.150Z,20.73
2017-01-02T00:17:31.985Z,20.71
2017-01-02T00:18:02.019Z,20.64
2017-01-02T00:18:32.059Z,20.69
2017-01-02T00:19:02.298Z,20.75
2017-01-02T00:19:32.137Z,20.71
2017-01-02T00:20:02.173Z,20.66
2017-01-02T00:20:32.215Z,20.71
2017-01-02T00:21:02.253Z,20.75
2017-01-02T00:21:32.287Z,20.72
2017-01-02T00:22:02.376Z,20.69
2017-01-02T00:22:32.368Z,20.72
2017-01-02T00:23:02.554Z,20.64
2017-01-02T00:23:32.441Z,20.73
2017-01-02T00:24:02.580Z,20.66
2017-01-02T00:24:32.520Z,20.69
2017-01-02T00:25:02.862Z,20.66
2017-01-02T00:25:32.604Z,20.75
2017-01-02T00:26:02.632Z,20.78
2017-01-02T00:26:32.683Z,20.75
2017-01-02T00:27:02.714Z,20.72
2017-01-02T00:27:32.750Z,20.72
2017-01-02T00:28:02.942Z,20.72
2017-01-02T00:28:32.824Z,20.71
2017-01-02T00:29:02.920Z,20.78
2017-01-02T00:29:32.935Z,20.69
2017-01-02T00:30:03.201Z,20.69
2017-01-02T00:30:32.985Z,20.73
2017-01-02T00:31:03.122Z,20.71
2017-01-02T00:31:33.056Z,20.69
2017-01-02T00:32:03.296Z,20.75
2017-01-02T00:32:33.137Z,20.71
2017-01-02T00:33:03.779Z,20.66
2017-01-02T00:33:33.214Z,20.72
2017-01-02T00:34:03.256Z,20.76
2017-01-02T00:34:33.285Z,20.64
2017-01-02T00:35:03.334Z,20.69
2017-01-02T00:35:33.364Z,20.68
2017-01-02T00:36:03.506Z,20.66
2017-01-02T00:36:33.449Z,20.66
2017-01-02T00:37:03.482Z,20.72
2017-01-02T00:37:33.523Z,20.69
2017-01-02T00:38:03.905Z,20.69
2017-01-02T00:38:33.598Z,20.64
2017-01-02T00:39:03.634Z,20.68
2017-01-02T00:39:33.680Z,20.66
2017-01-02T00:40:03.716Z,20.66
2017-01-02T00:40:33.756Z,20.66
2017-01-02T00:41:03.791Z,20.69
2017-01-02T00:41:33.824Z,20.66
2017-01-02T00:42:03.864Z,20.72
2017-01-02T00:42:33.922Z,20.72
2017-01-02T00:43:03.945Z,20.71
2017-01-02T00:43:33.991Z,20.66
2017-01-02T00:44:04.022Z,20.71
2017-01-02T00:44:34.060Z,20.68
2017-01-02T00:45:04.095Z,20.68
2017-01-02T00:45:34.136Z,20.68
2017-01-02T00:46:04.174Z,20.66
2017-01-02T00:46:34.215Z,20.72
2017-01-02T00:47:04.248Z,20.69
2017-01-02T00:47:34.292Z,20.75
2017-01-02T00:48:04.330Z,20.69
2017-01-02T00:48:34.513Z,20.66
2017-01-02T00:49:04.412Z,20.72
2017-01-02T00:49:34.474Z,20.64
2017-01-02T00:50:04.481Z,20.64
2017-01-02T00:50:34.525Z,20.75
2017-01-02T00:51:04.562Z,20.76
2017-01-02T00:51:34.602Z,20.68
2017-01-02T00:52:04.638Z,20.68
2017-01-02T00:52:34.703Z,20.68
2017-01-02T00:53:04.724Z,20.64
2017-01-02T00:53:34.750Z,20.66
2017-01-02T00:54:04.792Z,20.66
2017-01-02T00:54:34.829Z,20.73
2017-01-02T00:55:04.877Z,20.71
2017-01-02T00:55:34.910Z,20.75
2017-01-02T00:56:04.943Z,20.68
2017-01-02T00:56:34.983Z,20.75
2017-01-02T00:57:05.020Z,20.75
2017-01-02T00:57:35.100Z,20.66
2017-01-02T00:58:05.096Z,20.75
2017-01-02T00:58:35.140Z,20.75
2017-01-02T00:59:05.177Z,20.75
2017-01-02T00:59:35.211Z,20.71
2017-01-02T01:00:05.252Z,20.66
2017-01-02T01:00:35.293Z,20.64
2017-01-02T01:01:05.333Z,20.66
2017-01-02T01:01:35.368Z,20.73
2017-01-02T01:02:05.411Z,20.75
2017-01-02T01:02:35.440Z,20.72
2017-01-02T01:03:05.486Z,20.66
2017-01-02T01:03:35.524Z,20.73
2017-01-02T01:04:05.563Z,20.69
2017-01-02T01:04:35.600Z,20.71
2017-01-02T01:05:05.639Z,20.75
2017-01-02T01:05:35.676Z,20.64
2017-01-02T01:06:05.711Z,20.66
2017-01-02T01:06:35.745Z,20.69
2017-01-02T01:07:05.804Z,20.72
2017-01-02T01:07:35.826Z,20.73
2017-01-02T01:08:05.871Z,20.63
2017-01-02T01:08:35.915Z,20.66
2017-01-02T01:09:05.980Z,20.72
2017-01-02T01:09:35.984Z,20.71
2017-01-02T01:10:06.027Z,20.63
2017-01-02T01:10:36.064Z,20.72
2017-01-02T01:11:06.098Z,20.64
2017-01-02T01:11:36.139Z,20.68
2017-01-02T01:12:06.176Z,20.64
2017-01-02T01:12:36.221Z,20.69
2017-01-02T01:13:06.251Z,20.75
2017-01-02T01:13:36.292Z,20.63
2017-01-02T01:14:06.333Z,20.72
2017-01-02T01:14:36.380Z,20.63
2017-01-02T01:15:06.420Z,20.64
2017-01-02T01:15:36.449Z,20.58
2017-01-02T01:16:06.484Z,20.69
2017-01-02T01:16:36.526Z,20.68
2017-01-02T01:17:06.561Z,20.61
2017-01-02T01:17:36.602Z,20.68
2017-01-02T01:18:06.646Z,20.68
2017-01-02T01:18:36.680Z,20.68
2017-01-02T01:19:06.726Z,20.66
2017-01-02T01:19:36.755Z,20.68
2017-01-02T01:20:06.800Z,20.68
2017-01-02T01:20:36.833Z,20.64
2017-01-02T01:21:06.869Z,20.63
2017-01-02T01:21:36.904Z,20.66
2017-01-02T01:22:06.946Z,20.71
2017-01-02T01:22:36.993Z,20.69
2017-01-02T01:23:07.021Z,20.69
2017-01-02T01:23:37.058Z,20.66
2017-01-02T01:24:07.717Z,20.68
2017-01-02T01:24:37.138Z,20.72
2017-01-02T01:25:07.180Z,20.69
2017-01-02T01:25:37.219Z,20.63
2017-01-02T01:26:07.253Z,20.69
2017-01-02T01:26:37.292Z,20.69
2017-01-02T01:27:07.335Z,20.66
2017-01-02T01:27:37.380Z,20.64
2017-01-02T01:28:07.428Z,20.69
2017-01-02T01:28:37.446Z,20.66
2017-01-02T01:29:07.491Z,20.66
2017-01-02T01:29:37.522Z,20.69
2017-01-02T01:30:07.601Z,20.72
2017-01-02T01:30:37.600Z,20.68
2017-01-02T01:31:07.642Z,20.66
2017-01-02T01:31:37.673Z,20.71
2017-01-02T01:32:07.714Z,20.68
2017-01-02T01:32:37.753Z,20.69
2017-01-02T01:33:07.795Z,20.69
2017-01-02T01:33:37.831Z,20.63
2017-01-02T01:34:07.875Z,20.61
2017-01-02T01:34:37.916Z,20.73
2017-01-02T01:35:07.944Z,20.69
2017-01-02T01:35:37.984Z,20.66
2017-01-02T01:36:08.018Z,20.61
2017-01-02T01:36:38.058Z,20.66
2017-01-02T01:37:08.104Z,20.64
2017-01-02T01:37:38.136Z,20.69
2017-01-02T01:38:08.177Z,20.69
2017-01-02T01:38:38.221Z,20.64
2017-01-02T01:39:08.258Z,20.66
2017-01-02T01:39:38.292Z,20.6
2017-01-02T01:40:08.381Z,20.64
2017-01-02T01:40:38.374Z,20.68
2017-01-02T01:41:08.415Z,20.64
2017-01-02T01:41:38.445Z,20.64
2017-01-02T01:42:08.484Z,20.64
2017-01-02T01:42:38.524Z,20.68
2017-01-02T01:43:08.564Z,20.68
2017-01-02T01:43:38.602Z,20.66
2017-01-02T01:44:08.636Z,20.66
2017-01-02T01:44:38.677Z,20.61
2017-01-02T01:45:08.721Z,20.68
2017-01-02T01:45:38.897Z,20.6
2017-01-02T01:46:08.784Z,20.61
2017-01-02T01:46:38.831Z,20.66
2017-01-02T01:47:08.871Z,20.64
2017-01-02T01:47:38.912Z,20.64
2017-01-02T01:48:08.950Z,20.61
2017-01-02T01:48:39.004Z,20.63
2017-01-02T01:49:09.027Z,20.66
2017-01-02T01:49:39.063Z,20.66
2017-01-02T01:50:09.097Z,20.56
2017-01-02T01:50:39.140Z,20.68
2017-01-02T01:51:09.177Z,20.61
2017-01-02T01:51:39.222Z,20.63
2017-01-02T01:52:09.262Z,20.61
2017-01-02T01:52:39.291Z,20.68
2017-01-02T01:53:09.331Z,20.64
2017-01-02T01:53:39.372Z,20.6
2017-01-02T01:54:09.412Z,20.63
2017-01-02T01:54:39.446Z,20.64
2017-01-02T01:55:09.493Z,20.66
2017-01-02T01:55:39.574Z,20.66
2017-01-02T01:56:09.563Z,20.61
2017-01-02T01:56:39.603Z,20.71
2017-01-02T01:57:09.639Z,20.61
2017-01-02T01:57:39.821Z,20.63
2017-01-02T01:58:09.715Z,20.63
2017-01-02T01:58:39.758Z,20.58
2017-01-02T01:59:09.793Z,20.69
2017-01-02T01:59:39.844Z,20.63
2017-01-02T02:00:09.873Z,20.63
2017-01-02T02:00:39.912Z,20.64
2017-01-02T02:01:09.951Z,20.66
2017-01-02T02:01:39.986Z,20.64
2017-01-02T02:02:10.026Z,20.64
2017-01-02T02:02:40.070Z,20.63
2017-01-02T02:03:10.102Z,20.63
2017-01-02T02:03:40.135Z,20.68
2017-01-02T02:04:10.181Z,20.64
2017-01-02T02:04:40.247Z,20.61
2017-01-02T02:05:10.260Z,20.64
2017-01-02T02:05:40.292Z,20.68
2017-01-02T02:06:10.334Z,20.63
2017-01-02T02:06:40.366Z,20.68
2017-01-02T02:07:10.414Z,20.69
2017-01-02T02:07:40.459Z,20.68
2017-01-02T02:08:10.488Z,20.6
2017-01-02T02:08:40.526Z,20.68
2017-01-02T02:09:10.572Z,20.6
2017-01-02T02:09:40.604Z,20.61
2017-01-02T02:10:10.644Z,20.61
2017-01-02T02:10:40.681Z,20.64
2017-01-02T02:11:10.720Z,20.61
2017-01-02T02:11:40.757Z,20.57
2017-01-02T02:12:10.795Z,20.6
2017-01-02T02:12:40.834Z,20.63
2017-01-02T02:13:10.907Z,20.63
2017-01-02T02:13:40.915Z,20.64
2017-01-02T02:14:10.951Z,20.63
2017-01-02T02:14:40.989Z,20.61
2017-01-02T02:15:11.029Z,20.58
2017-01-02T02:15:41.064Z,20.66
2017-01-02T02:16:11.105Z,20.58
2017-01-02T02:16:41.147Z,20.61
2017-01-02T02:17:11.183Z,20.66
2017-01-02T02:17:41.219Z,20.56
2017-01-02T02:18:11.254Z,20.61
2017-01-02T02:18:41.297Z,20.63
2017-01-02T02:19:11.335Z,20.58
2017-01-02T02:19:41.372Z,20.6
2017-01-02T02:20:11.415Z,20.57
2017-01-02T02:20:41.464Z,20.6
2017-01-02T02:21:11.489Z,20.63
2017-01-02T02:21:41.525Z,20.58
2017-01-02T02:22:11.575Z,20.6
2017-01-02T02:22:41.605Z,20.6
2017-01-02T02:23:11.638Z,20.66
2017-01-02T02:23:41.684Z,20.64
2017-01-02T02:24:11.719Z,20.58
2017-01-02T02:24:41.761Z,20.57
2017-01-02T02:25:11.796Z,20.64
2017-01-02T02:25:41.843Z,20.61
2017-01-02T02:26:11.875Z,20.66
2017-01-02T02:26:41.917Z,20.61
2017-01-02T02:27:11.953Z,20.56
2017-01-02T02:27:42.002Z,20.6
2017-01-02T02:28:12.027Z,20.63
2017-01-02T02:28:42.064Z,20.56
2017-01-02T02:29:12.112Z,20.61
2017-01-02T02:29:42.142Z,20.57
2017-01-02T02:30:12.180Z,20.57
2017-01-02T02:30:42.218Z,20.54
2017-01-02T02:31:12.258Z,20.6
2017-01-02T02:31:42.299Z,20.57
2017-01-02T02:32:12.339Z,20.61
2017-01-02T02:32:42.369Z,20.64
2017-01-02T02:33:12.414Z,20.6
2017-01-02T02:33:42.454Z,20.57
2017-01-02T02:34:12.493Z,20.63
2017-01-02T02:34:42.528Z,20.57
2017-01-02T02:35:12.573Z,20.54
2017-01-02T02:35:42.614Z,20.6
2017-01-02T02:36:12.641Z,20.61
2017-01-02T02:36:42.679Z,20.61
2017-01-02T02:37:12.726Z,20.54
2017-01-02T02:37:42.756Z,20.56
2017-01-02T02:38:12.805Z,20.61
2017-01-02T02:38:42.837Z,20.56
2017-01-02T02:39:12.882Z,20.57
2017-01-02T02:39:42.912Z,20.66
2017-01-02T02:40:12.966Z,20.61
2017-01-02T02:40:42.989Z,20.63
2017-01-02T02:41:13.026Z,20.58
2017-01-02T02:41:43.070Z,20.58
2017-01-02T02:42:13.101Z,20.63
2017-01-02T02:42:43.145Z,20.57
2017-01-02T02:43:13.187Z,20.56
2017-01-02T02:43:43.230Z,20.61
2017-01-02T02:44:13.268Z,20.61
2017-01-02T02:44:43.295Z,20.64
2017-01-02T02:45:13.340Z,20.63
2017-01-02T02:45:43.374Z,20.56
2017-01-02T02:46:13.413Z,20.6
2017-01-02T02:46:43.454Z,20.54
2017-01-02T02:47:13.488Z,20.63
2017-01-02T02:47:43.529Z,20.54
2017-01-02T02:48:13.565Z,20.6
2017-01-02T02:48:43.613Z,20.63
2017-01-02T02:49:13.649Z,20.6
2017-01-02T02:49:43.687Z,20.6
2017-01-02T02:50:13.724Z,20.6
2017-01-02T02:50:43.763Z,20.57
2017-01-02T02:51:13.800Z,20.61
2017-01-02T02:51:43.837Z,20.63
2017-01-02T02:52:13.885Z,20.6
2017-01-02T02:52:43.923Z,20.6
2017-01-02T02:53:13.965Z,20.57
2017-01-02T02:53:44.013Z,20.57
2017-01-02T02:54:14.030Z,20.57
2017-01-02T02:54:44.072Z,20.64
2017-01-02T02:55:14.105Z,20.54
2017-01-02T02:55:44.150Z,20.61
2017-01-02T02:56:14.185Z,20.58
2017-01-02T02:56:44.220Z,20.6
2017-01-02T02:57:14.262Z,20.6
2017-01-02T02:57:44.298Z,20.64
2017-01-02T02:58:14.349Z,20.61
2017-01-02T02:58:44.376Z,20.57
2017-01-02T02:59:14.414Z,20.58
2017-01-02T02:59:44.464Z,20.6
2017-01-02T03:00:14.497Z,20.58
2017-01-02T03:00:44.545Z,20.6
2017-01-02T03:01:14.571Z,20.61
2017-01-02T03:01:44.615Z,20.58
2017-01-02T03:02:14.646Z,20.56
2017-01-02T03:02:44.695Z,20.54
2017-01-02T03:03:14.723Z,20.56
2017-01-02T03:03:44.762Z,20.61
2017-01-02T03:04:14.798Z,20.63
2017-01-02T03:04:44.848Z,20.56
2017-01-02T03:05:14.880Z,20.64
2017-01-02T03:05:44.917Z,20.58
2017-01-02T03:06:14.953Z,20.58
2017-01-02T03:06:44.987Z,20.6
2017-01-02T03:07:15.030Z,20.58
2017-01-02T03:07:45.072Z,20.61
2017-01-02T03:08:15.104Z,20.54
2017-01-02T03:08:45.148Z,20.6
2017-01-02T03:09:15.182Z,20.56
2017-01-02T03:09:45.219Z,20.6
2017-01-02T03:10:15.263Z,20.61
2017-01-02T03:10:45.296Z,20.58
2017-01-02T03:11:15.339Z,20.57
2017-01-02T03:11:45.372Z,20.61
2017-01-02T03:12:15.562Z,20.6
2017-01-02T03:12:45.456Z,20.57
2017-01-02T03:13:15.530Z,20.56
2017-01-02T03:13:45.533Z,20.6
2017-01-02T03:14:15.585Z,20.6
2017-01-02T03:14:45.613Z,20.57
2017-01-02T03:15:15.645Z,20.54
2017-01-02T03:15:45.687Z,20.6
2017-01-02T03:16:15.720Z,20.6
2017-01-02T03:16:45.764Z,20.63
2017-01-02T03:17:15.800Z,20.61
2017-01-02T03:17:45.843Z,20.58
2017-01-02T03:18:15.874Z,20.64
2017-01-02T03:18:45.911Z,20.6
2017-01-02T03:19:15.959Z,20.53
2017-01-02T03:19:45.988Z,20.61
2017-01-02T03:20:16.035Z,20.57
2017-01-02T03:20:46.068Z,20.58
2017-01-02T03:21:16.105Z,20.6
2017-01-02T03:21:46.144Z,20.54
2017-01-02T03:22:16.184Z,20.6
2017-01-02T03:22:46.225Z,20.6
2017-01-02T03:23:16.262Z,20.58
2017-01-02T03:23:46.295Z,20.57
2017-01-02T03:24:16.339Z,20.58
2017-01-02T03:24:46.375Z,20.57
2017-01-02T03:25:16.415Z,20.6
2017-01-02T03:25:46.455Z,20.58
2017-01-02T03:26:16.494Z,20.53
2017-01-02T03:26:46.527Z,20.58
2017-01-02T03:27:16.570Z,20.58
2017-01-02T03:27:46.607Z,20.56
2017-01-02T03:28:16.640Z,20.57
2017-01-02T03:28:46.686Z,20.63
2017-01-02T03:29:16.727Z,20.6
2017-01-02T03:29:46.763Z,20.6
2017-01-02T03:30:16.799Z,20.6
2017-01-02T03:30:46.835Z,20.54
2017-01-02T03:31:16.883Z,20.58
2017-01-02T03:31:46.916Z,20.57
2017-01-02T03:32:16.955Z,20.63
2017-01-02T03:32:46.996Z,20.61
2017-01-02T03:33:17.032Z,20.56
2017-01-02T03:33:47.068Z,20.56
2017-01-02T03:34:17.102Z,20.6
2017-01-02T03:34:47.152Z,20.54
2017-01-02T03:35:17.179Z,20.57
2017-01-02T03:35:47.223Z,20.56
2017-01-02T03:36:17.261Z,20.58
2017-01-02T03:36:47.292Z,20.56
2017-01-02T03:37:17.338Z,20.6
2017-01-02T03:37:47.375Z,20.57
2017-01-02T03:38:17.423Z,20.6
2017-01-02T03:38:47.459Z,20.58
2017-01-02T03:39:17.497Z,20.58
2017-01-02T03:39:47.532Z,20.54
2017-01-02T03:40:17.573Z,20.6
2017-01-02T03:40:47.604Z,20.57
2017-01-02T03:41:17.660Z,20.57
2017-01-02T03:41:47.692Z,20.57
2017-01-02T03:42:17.737Z,20.56
2017-01-02T03:42:47.965Z,20.57
2017-01-02T03:43:17.801Z,20.58
2017-01-02T03:43:47.840Z,20.63
2017-01-02T03:44:17.873Z,20.57
2017-01-02T03:44:47.913Z,20.5
2017-01-02T03:45:17.951Z,20.6
2017-01-02T03:45:48.003Z,20.58
2017-01-02T03:46:18.030Z,20.53
2017-01-02T03:46:48.069Z,20.58
2017-01-02T03:47:18.111Z,20.64
2017-01-02T03:47:48.139Z,20.56
2017-01-02T03:48:18.188Z,20.56
2017-01-02T03:48:48.222Z,20.54
2017-01-02T03:49:18.262Z,20.44
2017-01-02T03:49:48.301Z,20.54
2017-01-02T03:50:18.338Z,20.5
2017-01-02T03:50:48.383Z,20.58
2017-01-02T03:51:18.410Z,20.54
2017-01-02T03:51:48.450Z,20.6
2017-01-02T03:52:18.500Z,20.64
2017-01-02T03:52:48.532Z,20.57
2017-01-02T03:53:18.563Z,20.57
2017-01-02T03:53:48.613Z,20.56
2017-01-02T03:54:18.646Z,20.56
2017-01-02T03:54:48.679Z,20.58
2017-01-02T03:55:18.722Z,20.6
2017-01-02T03:55:48.760Z,20.51
2017-01-02T03:56:18.800Z,20.6
2017-01-02T03:56:48.839Z,20.56
2017-01-02T03:57:18.877Z,20.48
2017-01-02T03:57:48.916Z,20.54
2017-01-02T03:58:18.951Z,20.57
2017-01-02T03:58:48.994Z,20.6
2017-01-02T03:59:19.035Z,20.58
2017-01-02T03:59:49.076Z,20.5
2017-01-02T04:00:19.113Z,20.51
2017-01-02T04:00:49.148Z,20.57
2017-01-02T04:01:19.179Z,20.57
2017-01-02T04:01:49.219Z,20.5
2017-01-02T04:02:19.257Z,20.54
2017-01-02T04:02:49.326Z,20.6
2017-01-02T04:03:19.635Z,20.51
2017-01-02T04:03:49.376Z,20.58
2017-01-02T04:04:19.416Z,20.51
2017-01-02T04:04:49.453Z,20.53
2017-01-02T04:05:19.498Z,20.6
2017-01-02T04:05:49.528Z,20.58
2017-01-02T04:06:19.575Z,20.56
2017-01-02T04:06:49.609Z,20.6
2017-01-02T04:07:19.641Z,20.6
2017-01-02T04:07:49.696Z,20.54
2017-01-02T04:08:19.725Z,20.54
2017-01-02T04:08:49.756Z,20.58
2017-01-02T04:09:19.799Z,20.51
2017-01-02T04:09:49.839Z,20.6
2017-01-02T04:10:19.898Z,20.48
2017-01-02T04:10:49.915Z,20.58
2017-01-02T04:11:19.950Z,20.56
2017-01-02T04:11:49.994Z,20.57
2017-01-02T04:12:20.027Z,20.6
2017-01-02T04:12:50.065Z,20.48
2017-01-02T04:13:20.360Z,20.53
2017-01-02T04:13:50.142Z,20.46
2017-01-02T04:14:20.173Z,20.48
2017-01-02T04:14:50.220Z,20.46
2017-01-02T04:15:20.265Z,20.54
2017-01-02T04:15:50.297Z,20.44
2017-01-02T04:16:20.338Z,20.56
2017-01-02T04:16:50.376Z,20.58
2017-01-02T04:17:20.411Z,20.5
2017-01-02T04:17:50.452Z,20.57
2017-01-02T04:18:20.483Z,20.51
2017-01-02T04:18:50.525Z,20.56
2017-01-02T04:19:20.568Z,20.51
2017-01-02T04:19:50.604Z,20.46
2017-01-02T04:20:20.645Z,20.51
2017-01-02T04:20:50.681Z,20.51
2017-01-02T04:21:20.725Z,20.54
2017-01-02T04:21:50.768Z,20.56
2017-01-02T04:22:20.801Z,20.6
2017-01-02T04:22:50.832Z,20.56
2017-01-02T04:23:20.873Z,20.56
2017-01-02T04:23:50.915Z,20.56
2017-01-02T04:24:20.951Z,20.6
2017-01-02T04:24:50.987Z,20.54
2017-01-02T04:25:21.026Z,20.46
2017-01-02T04:25:51.069Z,20.6
2017-01-02T04:26:21.104Z,20.54
2017-01-02T04:26:51.151Z,20.51
2017-01-02T04:27:21.181Z,20.48
2017-01-02T04:27:51.217Z,20.6
2017-01-02T04:28:21.264Z,20.5
2017-01-02T04:28:51.297Z,20.6
2017-01-02T04:29:21.339Z,20.56
2017-01-02T04:29:51.373Z,20.56
2017-01-02T04:30:21.441Z,20.56
2017-01-02T04:30:51.461Z,20.57
2017-01-02T04:31:21.488Z,20.58
2017-01-02T04:31:51.533Z,20.54
2017-01-02T04:32:21.562Z,20.6
2017-01-02T04:32:51.606Z,20.56
2017-01-02T04:33:21.642Z,20.56
2017-01-02T04:33:51.985Z,20.53
2017-01-02T04:34:21.727Z,20.6
2017-01-02T04:34:51.764Z,20.51
2017-01-02T04:35:21.799Z,20.56
2017-01-02T04:35:51.833Z,20.51
2017-01-02T04:36:21.874Z,20.54
2017-01-02T04:36:51.913Z,20.51
2017-01-02T04:37:21.953Z,20.61
2017-01-02T04:37:51.991Z,20.46
2017-01-02T04:38:22.030Z,20.57
2017-01-02T04:38:52.063Z,20.56
2017-01-02T04:39:22.105Z,20.48
2017-01-02T04:39:52.144Z,20.54
2017-01-02T04:40:22.184Z,20.48
2017-01-02T04:40:52.215Z,20.56
2017-01-02T04:41:22.253Z,20.58
2017-01-02T04:41:52.305Z,20.56
2017-01-02T04:42:22.334Z,20.51
2017-01-02T04:42:52.374Z,20.5
2017-01-02T04:43:22.412Z,20.6
2017-01-02T04:43:52.452Z,20.54
2017-01-02T04:44:22.515Z,20.63
2017-01-02T04:44:52.531Z,20.54
2017-01-02T04:45:22.567Z,20.56
2017-01-02T04:45:52.604Z,20.58
2017-01-02T04:46:22.643Z,20.54
2017-01-02T04:46:52.687Z,20.51
2017-01-02T04:47:22.718Z,20.6
2017-01-02T04:47:52.758Z,20.54
2017-01-02T04:48:22.794Z,20.44
2017-01-02T04:48:52.839Z,20.57
2017-01-02T04:49:22.869Z,20.46
2017-01-02T04:49:52.937Z,20.57
2017-01-02T04:50:22.957Z,20.51
2017-01-02T04:50:52.995Z,20.54
2017-01-02T04:51:23.026Z,20.56
2017-01-02T04:51:53.061Z,20.48
2017-01-02T04:52:23.111Z,20.51
2017-01-02T04:52:53.146Z,20.6
2017-01-02T04:53:23.181Z,20.51
2017-01-02T04:53:53.221Z,20.56
2017-01-02T04:54:23.260Z,20.57
2017-01-02T04:54:53.295Z,20.51
2017-01-02T04:55:23.338Z,20.54
2017-01-02T04:55:53.374Z,20.6
2017-01-02T04:56:23.413Z,20.46
2017-01-02T04:56:53.452Z,20.5
2017-01-02T04:57:23.483Z,20.58
2017-01-02T04:57:53.525Z,20.51
2017-01-02T04:58:23.562Z,20.56
2017-01-02T04:58:53.604Z,20.51
2017-01-02T04:59:24.402Z,20.54
2017-01-02T04:59:53.686Z,20.58
2017-01-02T05:00:23.718Z,20.46
2017-01-02T05:00:53.760Z,20.54
2017-01-02T05:01:23.796Z,20.51
2017-01-02T05:01:53.837Z,20.48
2017-01-02T05:02:23.874Z,20.48
2017-01-02T05:02:53.910Z,20.56
2017-01-02T05:03:23.957Z,20.51
2017-01-02T05:03:53.989Z,20.58
2017-01-02T05:04:24.023Z,20.6
2017-01-02T05:04:54.059Z,20.51
2017-01-02T05:05:24.109Z,20.51
2017-01-02T05:05:54.139Z,20.54
2017-01-02T05:06:24.182Z,20.57
2017-01-02T05:06:54.226Z,20.46
2017-01-02T05:07:24.257Z,20.48
2017-01-02T05:07:54.297Z,20.54
2017-01-02T05:08:24.332Z,20.51
2017-01-02T05:08:54.372Z,20.56
2017-01-02T05:09:24.414Z,20.51
2017-01-02T05:09:54.447Z,20.56
2017-01-02T05:10:24.489Z,20.53
2017-01-02T05:10:54.531Z,20.57
2017-01-02T05:11:24.562Z,20.54
2017-01-02T05:11:54.607Z,20.54
2017-01-02T05:12:24.636Z,20.51
2017-01-02T05:12:54.680Z,20.53
2017-01-02T05:13:24.717Z,20.5
2017-01-02T05:13:54.753Z,20.53
2017-01-02T05:14:24.796Z,20.54
2017-01-02T05:14:54.831Z,20.51
2017-01-02T05:15:24.871Z,20.51
2017-01-02T05:15:54.909Z,20.51
2017-01-02T05:16:24.948Z,20.54
2017-01-02T05:16:54.991Z,20.51
2017-01-02T05:17:25.027Z,20.51
2017-01-02T05:17:55.059Z,20.48
2017-01-02T05:18:25.105Z,20.51
2017-01-02T05:18:55.140Z,20.51
2017-01-02T05:19:25.181Z,20.57
2017-01-02T05:19:55.227Z,20.5
2017-01-02T05:20:25.255Z,20.48
2017-01-02T05:20:55.298Z,20.48
2017-01-02T05:21:25.334Z,20.46
2017-01-02T05:21:55.373Z,20.48
2017-01-02T05:22:25.407Z,20.53
2017-01-02T05:22:55.449Z,20.48
2017-01-02T05:23:25.495Z,20.5
2017-01-02T05:23:55.519Z,20.51
2017-01-02T05:24:25.706Z,20.54
2017-01-02T05:24:55.607Z,20.51
2017-01-02T05:25:25.640Z,20.56
2017-01-02T05:25:55.671Z,20.54
2017-01-02T05:26:25.719Z,20.54
2017-01-02T05:26:55.750Z,20.54
2017-01-02T05:27:25.794Z,20.53
2017-01-02T05:27:55.832Z,20.48
2017-01-02T05:28:25.872Z,20.53
2017-01-02T05:28:55.911Z,20.5
2017-01-02T05:29:25.942Z,20.53
2017-01-02T05:29:55.981Z,20.46
2017-01-02T05:30:26.020Z,20.51
2017-01-02T05:30:56.060Z,20.46
2017-01-02T05:31:26.100Z,20.54
2017-01-02T05:31:56.146Z,20.5
2017-01-02T05:32:26.178Z,20.51
2017-01-02T05:32:56.211Z,20.5
2017-01-02T05:33:26.248Z,20.54
2017-01-02T05:33:56.291Z,20.46
2017-01-02T05:34:26.333Z,20.5
2017-01-02T05:34:56.370Z,20.54
2017-01-02T05:35:26.409Z,20.54
2017-01-02T05:35:56.448Z,20.42
2017-01-02T05:36:26.492Z,20.46
2017-01-02T05:36:56.519Z,20.48
2017-01-02T05:37:26.559Z,20.56
2017-01-02T05:37:56.599Z,20.48
2017-01-02T05:38:26.672Z,20.53
2017-01-02T05:38:56.678Z,20.48
2017-01-02T05:39:26.716Z,20.53
2017-01-02T05:39:56.761Z,20.5
2017-01-02T05:40:26.782Z,20.51
2017-01-02T05:40:56.831Z,20.56
2017-01-02T05:41:26.868Z,20.48
2017-01-02T05:41:56.909Z,20.51
2017-01-02T05:42:26.942Z,20.54
2017-01-02T05:42:56.982Z,20.48
2017-01-02T05:43:27.025Z,20.5
2017-01-02T05:43:57.058Z,20.54
2017-01-02T05:44:27.103Z,20.5
2017-01-02T05:44:57.137Z,20.5
2017-01-02T05:45:27.174Z,20.51
2017-01-02T05:45:57.219Z,20.48
2017-01-02T05:46:27.253Z,20.5
2017-01-02T05:46:57.302Z,20.44
2017-01-02T05:47:27.328Z,20.53
2017-01-02T05:47:57.370Z,20.5
2017-01-02T05:48:27.419Z,20.53
2017-01-02T05:48:57.445Z,20.48
2017-01-02T05:49:27.475Z,20.46
2017-01-02T05:49:57.519Z,20.51
2017-01-02T05:50:27.561Z,20.5
2017-01-02T05:50:57.603Z,20.51
2017-01-02T05:51:27.638Z,20.53
2017-01-02T05:51:57.679Z,20.53
2017-01-02T05:52:27.719Z,20.53
2017-01-02T05:52:57.755Z,20.5
2017-01-02T05:53:27.791Z,20.53
2017-01-02T05:53:57.988Z,20.56
2017-01-02T05:54:27.871Z,20.5
2017-01-02T05:54:57.907Z,20.54
2017-01-02T05:55:27.942Z,20.48
2017-01-02T05:55:57.981Z,20.53
2017-01-02T05:56:28.022Z,20.48
2017-01-02T05:56:58.059Z,20.51
2017-01-02T05:57:28.100Z,20.51
2017-01-02T05:57:58.287Z,20.48
2017-01-02T05:58:28.175Z,20.44
2017-01-02T05:58:58.250Z,20.54
2017-01-02T05:59:28.258Z,20.51
2017-01-02T05:59:58.294Z,20.5
2017-01-02T06:00:28.332Z,20.54
2017-01-02T06:00:58.372Z,20.51
2017-01-02T06:01:28.405Z,20.54
2017-01-02T06:01:58.444Z,20.5
2017-01-02T06:02:28.479Z,20.54
2017-01-02T06:02:58.527Z,20.54
2017-01-02T06:03:28.559Z,20.46
2017-01-02T06:03:58.599Z,20.51
2017-01-02T06:04:28.639Z,20.5
2017-01-02T06:04:58.677Z,20.54
2017-01-02T06:05:28.735Z,20.48
2017-01-02T06:05:59.055Z,20.51
2017-01-02T06:06:28.803Z,20.51
2017-01-02T06:06:58.823Z,20.54
2017-01-02T06:07:28.868Z,20.5
2017-01-02T06:07:58.901Z,20.48
2017-01-02T06:08:28.943Z,20.46
2017-01-02T06:08:58.982Z,20.5
2017-01-02T06:09:29.021Z,20.54
2017-01-02T06:09:59.061Z,20.5
2017-01-02T06:10:29.095Z,20.51
2017-01-02T06:10:59.140Z,20.51
2017-01-02T06:11:29.178Z,20.51
2017-01-02T06:11:59.212Z,20.51
2017-01-02T06:12:29.247Z,20.56
2017-01-02T06:12:59.291Z,20.48
2017-01-02T06:13:29.327Z,20.54
2017-01-02T06:13:59.379Z,20.46
2017-01-02T06:14:29.406Z,20.54
2017-01-02T06:14:59.451Z,20.48
2017-01-02T06:15:29.481Z,20.5
2017-01-02T06:15:59.522Z,20.53
2017-01-02T06:16:29.560Z,20.5
2017-01-02T06:16:59.592Z,20.57
2017-01-02T06:17:29.638Z,20.57
2017-01-02T06:17:59.674Z,20.5
2017-01-02T06:18:29.709Z,20.48
2017-01-02T06:18:59.772Z,20.51
2017-01-02T06:19:29.790Z,20.51
2017-01-02T06:19:59.825Z,20.48
2017-01-02T06:20:29.867Z,20.51
2017-01-02T06:20:59.905Z,20.51
2017-01-02T06:21:29.943Z,20.48
2017-01-02T06:21:59.979Z,20.53
2017-01-02T06:22:30.025Z,20.54
2017-01-02T06:23:00.062Z,20.51
2017-01-02T06:23:30.095Z,20.53
2017-01-02T06:24:00.138Z,20.51
2017-01-02T06:24:30.178Z,20.51
2017-01-02T06:25:00.215Z,20.48
2017-01-02T06:25:30.253Z,20.54
2017-01-02T06:26:00.290Z,20.51
2017-01-02T06:26:30.326Z,20.46
2017-01-02T06:27:00.366Z,20.51
2017-01-02T06:27:30.401Z,20.51
2017-01-02T06:28:00.448Z,20.51